createdAt,value
2022-12-16T00:01:24.667Z,21.77
2022-12-16T00:03:54.916Z,22.10
2022-12-16T00:06:24.771Z,22.37
2022-12-16T00:08:52.667Z,21.87
2022-12-16T00:11:21.688Z,22.40
2022-12-16T00:13:51.317Z,21.90
2022-12-16T00:16:21.275Z,22.77
2022-12-16T00:18:49.626Z,21.63
2022-12-16T00:21:19.860Z,22.40
2022-12-16T00:23:47.950Z,22.70
2022-12-16T00:26:16.007Z,23.10
2022-12-16T00:28:44.188Z,23.23
2022-12-16T00:31:13.552Z,22.73
2022-12-16T00:33:41.748Z,23.27
2022-12-16T00:36:10.706Z,22.73
2022-12-16T00:38:39.243Z,22.70
2022-12-16T00:41:07.132Z,23.20
2022-12-16T00:43:36.215Z,23.80
2022-12-16T00:46:04.309Z,23.13
2022-12-16T00:48:33.501Z,22.60
2022-12-16T00:51:01.307Z,23.33
2022-12-16T00:53:29.628Z,23.80
2022-12-16T00:56:03.572Z,23.37
2022-12-16T00:58:31.426Z,24.43
2022-12-16T01:00:59.437Z,22.37
2022-12-16T01:03:27.906Z,23.53
2022-12-16T01:05:57.149Z,22.73
2022-12-16T01:08:25.274Z,23.80
2022-12-16T01:10:55.382Z,23.60
2022-12-16T01:13:25.210Z,23.60
2022-12-16T01:15:53.624Z,22.73
2022-12-16T01:18:21.807Z,23.10
2022-12-16T01:20:49.676Z,23.07
2022-12-16T01:23:18.908Z,24.30
2022-12-16T01:25:46.801Z,24.07
2022-12-16T01:28:14.583Z,24.87
2022-12-16T01:30:42.457Z,23.70
2022-12-16T01:33:11.447Z,23.30
2022-12-16T01:35:55.142Z,23.73
2022-12-16T01:38:24.892Z,23.43
2022-12-16T01:40:52.865Z,23.60
2022-12-16T01:43:27.049Z,23.80
2022-12-16T01:45:57.994Z,23.60
2022-12-16T01:48:39.815Z,23.00
2022-12-16T01:51:12.471Z,22.27
2022-12-16T01:53:43.461Z,24.03
2022-12-16T01:56:13.468Z,22.80
2022-12-16T01:58:43.471Z,22.30
2022-12-16T02:01:11.445Z,23.90
2022-12-16T02:03:39.896Z,24.00
2022-12-16T02:06:08.667Z,23.37
2022-12-16T02:08:36.726Z,23.53
2022-12-16T02:11:34.908Z,22.60
2022-12-16T02:14:28.476Z,23.33
2022-12-16T02:17:01.368Z,22.63
2022-12-16T02:20:13.105Z,24.10
2022-12-16T02:22:53.876Z,21.17
2022-12-16T02:26:01.432Z,22.43
2022-12-16T02:28:56.076Z,24.20
2022-12-16T02:31:28.301Z,22.33
2022-12-16T02:34:09.574Z,27.07
2022-12-16T02:36:56.737Z,22.97
2022-12-16T02:39:29.256Z,23.83
2022-12-16T02:42:03.597Z,22.60
2022-12-16T02:44:40.255Z,23.47
2022-12-16T02:47:09.451Z,23.70
2022-12-16T02:49:47.377Z,22.13
2022-12-16T02:52:17.122Z,21.97
2022-12-16T02:54:45.884Z,22.93
2022-12-16T02:57:36.896Z,24.17
2022-12-16T03:00:07.956Z,24.93
2022-12-16T03:02:45.227Z,22.37
2022-12-16T03:05:17.622Z,23.23
2022-12-16T03:07:47.056Z,22.10
2022-12-16T03:10:19.185Z,23.10
2022-12-16T03:12:47.523Z,23.70
2022-12-16T03:15:18.396Z,22.23
2022-12-16T03:17:49.791Z,22.13
2022-12-16T03:20:23.021Z,22.63
2022-12-16T03:22:53.678Z,22.83
2022-12-16T03:25:23.493Z,22.90
2022-12-16T03:27:58.466Z,22.47
2022-12-16T03:30:30.054Z,22.17
2022-12-16T03:33:03.358Z,21.53
2022-12-16T03:35:37.596Z,22.07
2022-12-16T03:38:09.545Z,22.13
2022-12-16T03:40:39.341Z,21.80
2022-12-16T03:43:08.774Z,21.17
2022-12-16T03:45:39.828Z,21.77
2022-12-16T03:48:13.716Z,21.47
2022-12-16T03:50:41.649Z,21.43
2022-12-16T03:53:09.542Z,21.60
2022-12-16T03:55:37.623Z,21.93
2022-12-16T03:58:05.457Z,20.40
2022-12-16T04:00:33.331Z,21.10
2022-12-16T04:03:01.319Z,20.70
2022-12-16T04:05:30.678Z,20.33
2022-12-16T04:08:01.909Z,19.97
2022-12-16T04:10:48.154Z,20.43
2022-12-16T04:13:34.121Z,20.00
2022-12-16T04:16:20.420Z,19.77
2022-12-16T04:19:06.730Z,19.50
2022-12-16T04:21:53.369Z,20.63
2022-12-16T04:24:28.312Z,19.53
2022-12-16T04:27:15.794Z,18.93
2022-12-16T04:29:58.347Z,19.13
2022-12-16T04:32:27.044Z,19.20
2022-12-16T04:34:53.861Z,19.87
2022-12-16T04:37:40.652Z,18.73
2022-12-16T04:40:26.882Z,19.60
2022-12-16T04:43:12.439Z,19.97
2022-12-16T04:45:58.143Z,19.47
2022-12-16T04:48:43.495Z,21.07
2022-12-16T04:51:28.741Z,19.63
2022-12-16T04:54:15.616Z,19.20
2022-12-16T04:57:00.994Z,18.37
2022-12-16T04:59:46.513Z,20.67
2022-12-16T05:02:32.019Z,20.30
2022-12-16T05:05:17.430Z,19.97
2022-12-16T05:08:02.972Z,18.97
2022-12-16T05:10:49.759Z,19.93
2022-12-16T05:13:35.497Z,19.07
2022-12-16T05:16:17.519Z,19.93
2022-12-16T05:19:03.028Z,18.80
2022-12-16T05:21:48.718Z,22.57
2022-12-16T05:24:34.208Z,19.57
2022-12-16T05:27:20.834Z,20.17
2022-12-16T05:30:06.360Z,21.67
2022-12-16T05:32:51.985Z,16.53
2022-12-16T05:35:37.824Z,19.70
2022-12-16T05:38:23.484Z,18.73
2022-12-16T05:41:08.709Z,23.10
2022-12-16T05:43:55.576Z,23.77
2022-12-16T05:46:40.876Z,22.77
2022-12-16T05:49:26.495Z,23.17
2022-12-16T05:52:11.741Z,23.53
2022-12-16T05:54:57.211Z,21.90
2022-12-16T05:57:42.299Z,22.83
2022-12-16T06:00:30.923Z,22.83
2022-12-16T06:03:16.453Z,21.93
2022-12-16T06:06:02.241Z,21.87
2022-12-16T06:08:47.772Z,22.13
2022-12-16T06:11:33.122Z,23.37
2022-12-16T06:14:18.734Z,26.30
2022-12-16T06:17:05.313Z,24.60
2022-12-16T06:19:50.932Z,24.07
2022-12-16T06:22:36.524Z,24.40
2022-12-16T06:25:30.744Z,24.63
2022-12-16T06:28:16.257Z,24.20
2022-12-16T06:31:01.563Z,23.27
2022-12-16T06:33:51.958Z,23.57
2022-12-16T06:36:40.205Z,24.13
2022-12-16T06:39:25.831Z,23.13
2022-12-16T06:42:11.184Z,23.07
2022-12-16T06:44:56.660Z,21.10
2022-12-16T06:47:42.036Z,22.50
2022-12-16T06:50:28.988Z,22.33
2022-12-16T06:53:14.521Z,22.00
2022-12-16T06:55:59.827Z,21.07
2022-12-16T06:58:45.325Z,21.20
2022-12-16T07:01:30.746Z,21.23
2022-12-16T07:04:15.959Z,21.70
2022-12-16T07:07:02.566Z,21.43
2022-12-16T07:09:48.214Z,20.77
2022-12-16T07:12:33.495Z,21.43
2022-12-16T07:15:19.108Z,21.83
2022-12-16T07:18:04.645Z,21.33
2022-12-16T07:20:50.360Z,21.53
2022-12-16T07:23:37.796Z,20.67
2022-12-16T07:26:23.343Z,21.33
2022-12-16T07:29:08.911Z,21.50
2022-12-16T07:31:59.654Z,20.67
2022-12-16T07:34:56.819Z,21.40
2022-12-16T07:37:42.375Z,20.90
2022-12-16T07:40:30.166Z,20.37
2022-12-16T07:43:15.690Z,20.90
2022-12-16T07:46:01.621Z,20.07
2022-12-16T07:48:46.869Z,21.63
2022-12-16T07:51:32.284Z,20.57
2022-12-16T07:54:17.856Z,22.07
2022-12-16T07:57:04.644Z,20.93
2022-12-16T07:59:50.131Z,22.37
2022-12-16T08:02:35.654Z,21.70
2022-12-16T08:05:21.156Z,21.57
2022-12-16T08:08:06.812Z,22.93
2022-12-16T08:10:48.559Z,21.30
2022-12-16T08:13:35.810Z,24.13
2022-12-16T08:16:21.691Z,24.50
2022-12-16T08:19:10.739Z,21.03
2022-12-16T08:21:56.693Z,21.40
2022-12-16T08:24:42.695Z,21.80
2022-12-16T08:27:30.169Z,22.87
2022-12-16T08:30:17.048Z,22.80
2022-12-16T08:33:10.803Z,22.13
2022-12-16T08:36:03.839Z,24.40
2022-12-16T08:38:49.326Z,24.30
2022-12-16T08:41:34.588Z,32.77
2022-12-16T08:44:20.220Z,29.07
2022-12-16T08:47:06.936Z,29.43
2022-12-16T08:49:54.792Z,30.10
2022-12-16T08:52:43.205Z,28.37
2022-12-16T08:55:29.969Z,30.23
2022-12-16T08:58:15.743Z,26.67
2022-12-16T09:01:06.690Z,28.67
2022-12-16T09:03:55.090Z,28.33
2022-12-16T09:06:41.320Z,27.20
2022-12-16T09:09:26.920Z,29.23
2022-12-16T09:12:12.207Z,28.27
2022-12-16T09:14:57.764Z,29.23
2022-12-16T09:17:43.562Z,27.67
2022-12-16T09:20:30.546Z,29.90
2022-12-16T09:23:19.471Z,29.47
2022-12-16T09:26:04.941Z,30.63
2022-12-16T09:28:50.411Z,21.67
2022-12-16T09:31:36.109Z,31.63
2022-12-16T09:34:21.812Z,30.70
2022-12-16T09:37:08.388Z,33.47
2022-12-16T09:39:54.533Z,38.97
2022-12-16T09:42:48.855Z,37.60
2022-12-16T09:45:40.479Z,31.93
2022-12-16T09:48:31.626Z,30.33
2022-12-16T09:51:21.749Z,30.80
2022-12-16T09:54:11.011Z,32.50
2022-12-16T09:56:56.295Z,32.07
2022-12-16T09:59:46.670Z,31.63
2022-12-16T10:02:35.048Z,31.13
2022-12-16T10:05:21.308Z,30.87
2022-12-16T10:08:18.808Z,31.07
2022-12-16T10:11:11.729Z,33.57
2022-12-16T10:14:04.936Z,30.83
2022-12-16T10:17:00.232Z,32.33
2022-12-16T10:19:56.488Z,32.33
2022-12-16T10:22:52.396Z,31.63
2022-12-16T10:25:40.684Z,31.70
2022-12-16T10:28:34.811Z,33.30
2022-12-16T10:31:23.082Z,35.03
2022-12-16T10:34:11.900Z,31.27
2022-12-16T10:36:57.808Z,31.53
2022-12-16T10:39:49.291Z,32.60
2022-12-16T10:42:40.917Z,36.00
2022-12-16T10:45:37.444Z,35.23
2022-12-16T10:48:32.031Z,33.70
2022-12-16T10:51:18.554Z,32.33
2022-12-16T10:54:07.535Z,33.70
2022-12-16T10:57:08.072Z,34.10
2022-12-16T10:59:56.405Z,34.90
2022-12-16T11:02:45.204Z,34.60
2022-12-16T11:05:49.509Z,37.80
2022-12-16T11:08:44.030Z,35.27
2022-12-16T11:11:38.795Z,34.07
2022-12-16T11:14:39.011Z,36.43
2022-12-16T11:17:34.368Z,34.77
2022-12-16T11:20:33.008Z,33.40
2022-12-16T11:23:33.072Z,35.30
2022-12-16T11:26:36.059Z,35.53
2022-12-16T11:29:27.613Z,34.27
2022-12-16T11:32:18.987Z,36.30
2022-12-16T11:35:10.624Z,35.97
2022-12-16T11:37:59.529Z,35.53
2022-12-16T11:40:46.554Z,35.37
2022-12-16T11:43:35.166Z,35.93
2022-12-16T11:46:27.031Z,36.83
2022-12-16T11:49:23.391Z,35.40
2022-12-16T11:52:35.422Z,32.40
2022-12-16T11:56:02.860Z,33.60
2022-12-16T11:58:39.300Z,33.80
2022-12-16T12:01:31.193Z,34.40
2022-12-16T12:04:16.704Z,35.93
2022-12-16T12:07:19.508Z,34.53
2022-12-16T12:10:12.048Z,35.53
2022-12-16T12:13:13.562Z,35.10
2022-12-16T12:16:07.506Z,35.10
2022-12-16T12:18:59.420Z,37.00
2022-12-16T12:21:57.985Z,37.07
2022-12-16T12:24:56.202Z,37.50
2022-12-16T12:27:51.805Z,38.70
2022-12-16T12:30:40.392Z,39.90
2022-12-16T12:33:40.635Z,38.83
2022-12-16T12:36:37.880Z,42.33
2022-12-16T12:39:34.077Z,43.97
2022-12-16T12:42:30.640Z,41.73
2022-12-16T12:45:28.475Z,41.37
2022-12-16T12:48:24.791Z,44.33
2022-12-16T12:51:17.066Z,40.77
2022-12-16T12:54:09.504Z,40.13
2022-12-16T12:57:03.868Z,40.70
2022-12-16T13:00:02.291Z,41.57
2022-12-16T13:03:00.690Z,49.20
2022-12-16T13:05:45.902Z,45.10
2022-12-16T13:08:49.791Z,42.20
2022-12-16T13:11:35.688Z,41.30
2022-12-16T13:14:21.384Z,41.10
2022-12-16T13:17:25.867Z,41.13
2022-12-16T13:20:16.125Z,41.80
2022-12-16T13:23:04.805Z,40.63
2022-12-16T13:25:59.017Z,39.63
2022-12-16T13:28:48.124Z,41.80
2022-12-16T13:31:34.580Z,41.17
2022-12-16T13:34:26.245Z,43.13
2022-12-16T13:37:19.514Z,41.40
2022-12-16T13:40:20.449Z,45.63
2022-12-16T13:43:13.563Z,36.53
2022-12-16T13:46:01.773Z,40.10
2022-12-16T13:48:53.415Z,46.67
2022-12-16T13:52:24.849Z,42.07
2022-12-16T13:55:24.939Z,41.40
2022-12-16T13:58:20.884Z,43.37
2022-12-16T14:01:20.017Z,41.13
2022-12-16T14:04:09.206Z,36.00
2022-12-16T14:06:57.624Z,38.97
2022-12-16T14:09:50.955Z,37.73
2022-12-16T14:12:57.042Z,38.43
2022-12-16T14:15:46.495Z,38.50
2022-12-16T14:18:43.596Z,38.27
2022-12-16T14:21:34.869Z,37.77
2022-12-16T14:24:26.348Z,36.60
2022-12-16T14:27:11.975Z,36.30
2022-12-16T14:30:02.140Z,39.50
2022-12-16T14:32:49.036Z,39.17
2022-12-16T14:35:37.201Z,38.87
2022-12-16T14:38:41.044Z,40.33
2022-12-16T14:41:30.173Z,36.60
2022-12-16T14:44:15.810Z,37.07
2022-12-16T14:47:08.531Z,38.80
2022-12-16T14:49:54.028Z,37.60
2022-12-16T14:52:37.495Z,39.10
2022-12-16T14:55:31.292Z,36.67
2022-12-16T14:58:29.161Z,35.80
2022-12-16T15:01:17.828Z,35.13
2022-12-16T15:04:06.630Z,35.97
2022-12-16T15:06:51.251Z,36.30
2022-12-16T15:09:43.168Z,35.03
2022-12-16T15:12:31.442Z,34.37
2022-12-16T15:15:17.904Z,34.23
2022-12-16T15:18:08.101Z,34.47
2022-12-16T15:20:59.135Z,32.53
2022-12-16T15:23:48.825Z,33.33
2022-12-16T15:26:36.514Z,33.47
2022-12-16T15:29:22.578Z,37.53
2022-12-16T15:32:07.761Z,37.67
2022-12-16T15:35:03.927Z,34.63
2022-12-16T15:38:00.586Z,33.73
2022-12-16T15:40:51.632Z,33.57
2022-12-16T15:43:48.184Z,34.47
2022-12-16T15:46:39.073Z,34.73
2022-12-16T15:49:25.387Z,35.03
2022-12-16T15:52:10.998Z,35.50
2022-12-16T15:55:10.877Z,36.93
2022-12-16T15:57:57.510Z,36.43
2022-12-16T16:00:44.503Z,33.40
2022-12-16T16:03:39.241Z,33.00
2022-12-16T16:06:34.216Z,31.63
2022-12-16T16:09:19.820Z,31.37
2022-12-16T16:12:06.367Z,31.30
2022-12-16T16:14:51.848Z,30.70
2022-12-16T16:17:41.330Z,30.63
2022-12-16T16:20:32.749Z,33.23
2022-12-16T16:23:18.226Z,37.73
2022-12-16T16:26:04.427Z,35.70
2022-12-16T16:28:51.064Z,33.73
2022-12-16T16:31:36.890Z,34.20
2022-12-16T16:34:22.104Z,32.97
2022-12-16T16:37:12.411Z,32.10
2022-12-16T16:39:58.757Z,32.00
2022-12-16T16:42:44.180Z,33.33
2022-12-16T16:45:31.401Z,31.47
2022-12-16T16:48:24.586Z,32.47
2022-12-16T16:51:13.148Z,32.77
2022-12-16T16:53:58.713Z,32.73
2022-12-16T16:56:44.628Z,32.93
2022-12-16T16:59:31.618Z,33.43
2022-12-16T17:02:18.886Z,33.63
2022-12-16T17:05:04.379Z,32.50
2022-12-16T17:07:53.736Z,33.17
2022-12-16T17:10:53.855Z,32.50
2022-12-16T17:13:39.298Z,33.70
2022-12-16T17:16:25.525Z,34.20
2022-12-16T17:19:12.440Z,34.03
2022-12-16T17:21:57.600Z,33.10
2022-12-16T17:24:49.299Z,35.17
2022-12-16T17:27:39.059Z,36.30
2022-12-16T17:30:31.246Z,37.60
2022-12-16T17:33:16.886Z,36.03
2022-12-16T17:36:06.358Z,39.93
2022-12-16T17:39:00.659Z,37.90
2022-12-16T17:41:47.029Z,37.17
2022-12-16T17:44:32.925Z,36.77
2022-12-16T17:47:18.769Z,35.47
2022-12-16T17:50:04.391Z,36.57
2022-12-16T17:52:51.323Z,37.03
2022-12-16T17:55:33.186Z,35.53
2022-12-16T17:58:18.774Z,33.10
2022-12-16T18:01:04.078Z,34.27
2022-12-16T18:03:58.130Z,35.17
2022-12-16T18:06:44.219Z,34.53
2022-12-16T18:09:29.969Z,34.23
2022-12-16T18:12:15.657Z,35.50
2022-12-16T18:15:01.201Z,35.13
2022-12-16T18:17:46.735Z,34.97
2022-12-16T18:20:32.300Z,37.43
2022-12-16T18:23:17.878Z,37.77
2022-12-16T18:26:15.612Z,39.23
2022-12-16T18:29:01.167Z,38.07
2022-12-16T18:31:46.583Z,38.53
2022-12-16T18:34:32.017Z,39.07
2022-12-16T18:37:17.341Z,38.13
2022-12-16T18:40:02.856Z,37.33
2022-12-16T18:42:49.515Z,38.60
2022-12-16T18:45:35.333Z,38.30
2022-12-16T18:48:20.589Z,38.50
2022-12-16T18:51:12.241Z,39.17
2022-12-16T18:53:57.783Z,39.87
2022-12-16T18:56:43.536Z,41.80
2022-12-16T18:59:30.273Z,42.80
2022-12-16T19:02:15.763Z,41.30
2022-12-16T19:05:01.218Z,41.40
2022-12-16T19:07:46.444Z,41.57
2022-12-16T19:10:31.882Z,41.30
2022-12-16T19:13:17.736Z,40.43
2022-12-16T19:16:12.850Z,43.43
2022-12-16T19:18:58.218Z,41.17
2022-12-16T19:21:46.889Z,42.20
2022-12-16T19:24:35.501Z,42.30
2022-12-16T19:27:20.840Z,42.83
2022-12-16T19:30:06.537Z,44.20
2022-12-16T19:32:53.169Z,42.27
2022-12-16T19:35:39.064Z,46.37
2022-12-16T19:38:24.648Z,44.33
2022-12-16T19:41:11.440Z,45.63
2022-12-16T19:44:03.443Z,48.70
2022-12-16T19:46:59.192Z,46.57
2022-12-16T19:49:46.156Z,46.23
2022-12-16T19:52:31.973Z,47.93
2022-12-16T19:55:17.971Z,50.40
2022-12-16T19:58:06.310Z,51.10
2022-12-16T20:00:51.710Z,51.07
2022-12-16T20:03:37.761Z,53.87
2022-12-16T20:06:38.133Z,50.53
2022-12-16T20:09:23.631Z,48.63
2022-12-16T20:12:08.951Z,52.53
2022-12-16T20:14:56.467Z,57.40
2022-12-16T20:17:42.184Z,53.47
2022-12-16T20:20:27.888Z,55.77
2022-12-16T20:23:15.713Z,58.50
2022-12-16T20:26:00.971Z,57.07
2022-12-16T20:28:46.557Z,65.07
2022-12-16T20:31:31.826Z,40.13
2022-12-16T20:34:17.397Z,64.70
2022-12-16T20:36:59.207Z,61.23
2022-12-16T20:39:52.925Z,60.90
2022-12-16T20:42:42.031Z,57.23
2022-12-16T20:45:28.241Z,59.83
2022-12-16T20:48:13.877Z,62.07
2022-12-16T20:50:59.312Z,59.80
2022-12-16T20:53:44.887Z,61.53
2022-12-16T20:56:31.547Z,60.60
2022-12-16T20:59:17.010Z,59.43
2022-12-16T21:02:22.646Z,61.07
2022-12-16T21:05:19.391Z,58.33
2022-12-16T21:08:04.988Z,55.10
2022-12-16T21:10:50.227Z,53.90
2022-12-16T21:13:37.631Z,56.60
2022-12-16T21:16:24.903Z,54.63
2022-12-16T21:19:10.585Z,54.53
2022-12-16T21:25:21.087Z,53.70
2022-12-16T21:28:13.782Z,53.83
2022-12-16T21:31:00.339Z,51.40
2022-12-16T21:33:46.309Z,52.90
2022-12-16T21:36:32.081Z,52.90
2022-12-16T21:39:18.761Z,52.30
2022-12-16T21:42:03.921Z,53.07
2022-12-16T21:44:49.604Z,53.60
2022-12-16T21:47:36.159Z,52.63
2022-12-16T21:50:21.221Z,51.37
2022-12-16T21:53:06.818Z,51.60
2022-12-16T21:55:52.177Z,51.90
2022-12-16T21:58:37.768Z,51.27
2022-12-16T22:01:23.816Z,51.07
2022-12-16T22:04:10.492Z,54.57
2022-12-16T22:06:55.863Z,56.20
2022-12-16T22:09:41.920Z,54.10
2022-12-16T22:12:27.256Z,52.67
2022-12-16T22:15:12.848Z,52.47
2022-12-16T22:17:58.919Z,52.93
2022-12-16T22:20:45.642Z,53.07
2022-12-16T22:23:31.150Z,53.37
2022-12-16T22:26:17.317Z,52.50
2022-12-16T22:29:02.947Z,53.03
2022-12-16T22:31:49.299Z,55.60
2022-12-16T22:34:34.909Z,55.17
2022-12-16T22:37:21.605Z,53.00
2022-12-16T22:40:06.916Z,55.50
2022-12-16T22:42:52.548Z,52.13
2022-12-16T22:45:39.568Z,55.53
2022-12-16T22:48:25.283Z,53.60
2022-12-16T22:51:10.906Z,49.13
2022-12-16T22:53:57.691Z,46.63
2022-12-16T22:56:42.897Z,47.87
2022-12-16T22:59:24.653Z,49.07
2022-12-16T23:02:10.245Z,46.63
2022-12-16T23:04:55.717Z,46.33
2022-12-16T23:07:39.287Z,45.33
2022-12-16T23:10:27.359Z,46.07
2022-12-16T23:13:12.936Z,47.13
2022-12-16T23:15:58.330Z,48.77
2022-12-16T23:18:43.935Z,48.07
2022-12-16T23:21:33.755Z,51.57
2022-12-16T23:24:19.423Z,51.40
2022-12-16T23:27:06.194Z,46.77
2022-12-16T23:29:51.839Z,49.33
2022-12-16T23:32:37.518Z,49.10
2022-12-16T23:35:23.499Z,46.10
2022-12-16T23:38:08.883Z,46.80
2022-12-16T23:40:54.569Z,44.77
2022-12-16T23:43:43.955Z,44.63
2022-12-16T23:46:29.447Z,42.83
2022-12-16T23:49:15.070Z,41.43
2022-12-16T23:52:00.427Z,43.17
2022-12-16T23:54:46.204Z,43.17
2022-12-16T23:57:31.893Z,44.07
